Beaver, Oklahoma
Current Conditions -  °F | °C
As of 10:15 AM on Thursday 29 Jan 2015 (Local Time) from KLBL Reporting Station
Scattered Clouds Scattered Clouds  
Wind Chill: 32°   Ceiling: Unl
Heat Index: 41°   Visibility: 10mi
Dew Point: 28°   Wind: 17mph
Humidity: 61%   Direction: 360°N
Pressure: 30.53"   Gusts: 22mph
Location:  36.82°N, 100.52°W
Report Text: KLBL 291615Z AUTO 36015G19KT 10SM SCT110 05/M02 A3053 RMK AO1
Loading
Personal Weather Stations






























Interactive Weather Map New forecast layout! Learn more

10-Day Weather Forecast

Advertisements
Track Severe Weather on mobile